sensor_id;sensor_type;location;lat;lon;timestamp;P1;durP1;ratioP1;P2;durP2;ratioP2
49688;SDS011;70518;51.400;7.428;2023-07-24T00:01:46;49.47;;;16.40;;
49688;SDS011;70518;51.400;7.428;2023-07-24T00:04:12;71.90;;;23.17;;
49688;SDS011;70518;51.400;7.428;2023-07-24T00:06:37;77.78;;;28.35;;
49688;SDS011;70518;51.400;7.428;2023-07-24T00:09:02;83.55;;;29.60;;
49688;SDS011;70518;51.400;7.428;2023-07-24T00:11:28;78.25;;;29.90;;
49688;SDS011;70518;51.400;7.428;2023-07-24T00:13:53;87.88;;;31.13;;
49688;SDS011;70518;51.400;7.428;2023-07-24T00:16:18;80.95;;;30.63;;
49688;SDS011;70518;51.400;7.428;2023-07-24T00:18:44;100.30;;;38.63;;
49688;SDS011;70518;51.400;7.428;2023-07-24T00:21:09;97.07;;;39.60;;
49688;SDS011;70518;51.400;7.428;2023-07-24T00:23:35;91.78;;;35.42;;
49688;SDS011;70518;51.400;7.428;2023-07-24T00:26:01;74.93;;;27.50;;
49688;SDS011;70518;51.400;7.428;2023-07-24T00:28:26;59.45;;;21.90;;
49688;SDS011;70518;51.400;7.428;2023-07-24T00:30:52;40.47;;;16.48;;
49688;SDS011;70518;51.400;7.428;2023-07-24T00:33:17;31.75;;;12.27;;
49688;SDS011;70518;51.400;7.428;2023-07-24T00:35:42;21.77;;;9.23;;
49688;SDS011;70518;51.400;7.428;2023-07-24T00:38:08;19.98;;;7.57;;
49688;SDS011;70518;51.400;7.428;2023-07-24T00:40:33;13.27;;;5.43;;
49688;SDS011;70518;51.400;7.428;2023-07-24T00:42:58;8.90;;;4.18;;
49688;SDS011;70518;51.400;7.428;2023-07-24T00:45:24;10.70;;;3.83;;
49688;SDS011;70518;51.400;7.428;2023-07-24T00:47:50;7.07;;;2.78;;
49688;SDS011;70518;51.400;7.428;2023-07-24T00:50:16;5.70;;;2.30;;
49688;SDS011;70518;51.400;7.428;2023-07-24T00:52:42;5.32;;;1.95;;
49688;SDS011;70518;51.400;7.428;2023-07-24T00:55:08;3.83;;;1.58;;
49688;SDS011;70518;51.400;7.428;2023-07-24T00:57:35;3.42;;;1.42;;
49688;SDS011;70518;51.400;7.428;2023-07-24T01:00:01;3.65;;;1.25;;
49688;SDS011;70518;51.400;7.428;2023-07-24T01:02:28;2.30;;;0.90;;
49688;SDS011;70518;51.400;7.428;2023-07-24T01:04:54;1.73;;;0.75;;
49688;SDS011;70518;51.400;7.428;2023-07-24T01:07:20;2.10;;;0.80;;
49688;SDS011;70518;51.400;7.428;2023-07-24T01:09:45;2.35;;;1.17;;
49688;SDS011;70518;51.400;7.428;2023-07-24T01:12:31;1.45;;;0.98;;
49688;SDS011;70518;51.400;7.428;2023-07-24T01:15:06;1.80;;;0.80;;
49688;SDS011;70518;51.400;7.428;2023-07-24T01:17:38;2.10;;;0.63;;
49688;SDS011;70518;51.400;7.428;2023-07-24T01:20:06;1.47;;;0.80;;
49688;SDS011;70518;51.400;7.428;2023-07-24T01:22:39;2.10;;;0.70;;
49688;SDS011;70518;51.400;7.428;2023-07-24T01:25:32;2.17;;;0.80;;
49688;SDS011;70518;51.400;7.428;2023-07-24T01:28:08;1.20;;;0.70;;
49688;SDS011;70518;51.400;7.428;2023-07-24T01:30:33;2.63;;;0.60;;
49688;SDS011;70518;51.400;7.428;2023-07-24T01:32:59;1.70;;;0.50;;
49688;SDS011;70518;51.400;7.428;2023-07-24T01:35:24;1.70;;;0.80;;
49688;SDS011;70518;51.400;7.428;2023-07-24T01:37:51;1.67;;;0.80;;
49688;SDS011;70518;51.400;7.428;2023-07-24T01:40:17;2.03;;;0.73;;
49688;SDS011;70518;51.400;7.428;2023-07-24T01:42:44;1.33;;;0.70;;
49688;SDS011;70518;51.400;7.428;2023-07-24T01:45:09;2.15;;;0.65;;
49688;SDS011;70518;51.400;7.428;2023-07-24T01:47:36;1.48;;;0.70;;
49688;SDS011;70518;51.400;7.428;2023-07-24T01:50:01;1.20;;;0.70;;
49688;SDS011;70518;51.400;7.428;2023-07-24T01:52:27;1.00;;;0.60;;
49688;SDS011;70518;51.400;7.428;2023-07-24T01:54:52;2.42;;;0.80;;
49688;SDS011;70518;51.400;7.428;2023-07-24T01:57:17;1.58;;;0.80;;
49688;SDS011;70518;51.400;7.428;2023-07-24T01:59:42;1.15;;;0.70;;
49688;SDS011;70518;51.400;7.428;2023-07-24T02:02:09;1.30;;;0.80;;
49688;SDS011;70518;51.400;7.428;2023-07-24T02:04:35;1.85;;;0.70;;
49688;SDS011;70518;51.400;7.428;2023-07-24T02:07:00;1.33;;;0.70;;
49688;SDS011;70518;51.400;7.428;2023-07-24T02:09:25;1.52;;;0.70;;
49688;SDS011;70518;51.400;7.428;2023-07-24T02:11:51;1.13;;;0.73;;
49688;SDS011;70518;51.400;7.428;2023-07-24T02:14:17;1.08;;;0.70;;
49688;SDS011;70518;51.400;7.428;2023-07-24T02:16:43;1.25;;;0.75;;
49688;SDS011;70518;51.400;7.428;2023-07-24T02:19:08;1.70;;;0.80;;
49688;SDS011;70518;51.400;7.428;2023-07-24T02:21:33;2.25;;;0.90;;
49688;SDS011;70518;51.400;7.428;2023-07-24T02:23:59;1.05;;;0.50;;
49688;SDS011;70518;51.400;7.428;2023-07-24T02:26:24;1.25;;;0.70;;
49688;SDS011;70518;51.400;7.428;2023-07-24T02:28:49;1.95;;;0.70;;
49688;SDS011;70518;51.400;7.428;2023-07-24T02:31:15;1.88;;;0.70;;
49688;SDS011;70518;51.400;7.428;2023-07-24T02:33:41;1.65;;;0.60;;
49688;SDS011;70518;51.400;7.428;2023-07-24T02:36:06;1.42;;;0.80;;
49688;SDS011;70518;51.400;7.428;2023-07-24T02:38:31;2.40;;;0.82;;
49688;SDS011;70518;51.400;7.428;2023-07-24T02:40:57;2.15;;;0.70;;
49688;SDS011;70518;51.400;7.428;2023-07-24T02:43:22;1.60;;;0.77;;
49688;SDS011;70518;51.400;7.428;2023-07-24T02:45:47;1.23;;;0.90;;
49688;SDS011;70518;51.400;7.428;2023-07-24T02:48:13;1.60;;;0.90;;
49688;SDS011;70518;51.400;7.428;2023-07-24T02:50:38;1.20;;;0.75;;
49688;SDS011;70518;51.400;7.428;2023-07-24T02:53:03;1.45;;;0.73;;
49688;SDS011;70518;51.400;7.428;2023-07-24T02:55:29;2.65;;;1.00;;
49688;SDS011;70518;51.400;7.428;2023-07-24T02:57:54;1.27;;;0.75;;
49688;SDS011;70518;51.400;7.428;2023-07-24T03:00:20;1.67;;;0.80;;
49688;SDS011;70518;51.400;7.428;2023-07-24T03:02:45;1.80;;;0.98;;
49688;SDS011;70518;51.400;7.428;2023-07-24T03:05:10;1.75;;;1.00;;
49688;SDS011;70518;51.400;7.428;2023-07-24T03:07:36;1.75;;;0.88;;
49688;SDS011;70518;51.400;7.428;2023-07-24T03:10:01;1.85;;;0.98;;
49688;SDS011;70518;51.400;7.428;2023-07-24T03:12:27;1.70;;;0.90;;
49688;SDS011;70518;51.400;7.428;2023-07-24T03:14:52;1.75;;;0.90;;
49688;SDS011;70518;51.400;7.428;2023-07-24T03:17:18;2.15;;;0.90;;
49688;SDS011;70518;51.400;7.428;2023-07-24T03:19:43;2.03;;;1.05;;
49688;SDS011;70518;51.400;7.428;2023-07-24T03:22:08;3.28;;;1.02;;
49688;SDS011;70518;51.400;7.428;2023-07-24T03:24:34;1.73;;;0.70;;
49688;SDS011;70518;51.400;7.428;2023-07-24T03:27:00;1.38;;;0.90;;
49688;SDS011;70518;51.400;7.428;2023-07-24T03:29:26;2.50;;;1.00;;
49688;SDS011;70518;51.400;7.428;2023-07-24T03:31:51;1.48;;;1.00;;
49688;SDS011;70518;51.400;7.428;2023-07-24T03:34:17;2.30;;;1.27;;
49688;SDS011;70518;51.400;7.428;2023-07-24T03:36:42;2.15;;;1.20;;
49688;SDS011;70518;51.400;7.428;2023-07-24T03:39:09;2.92;;;1.00;;
49688;SDS011;70518;51.400;7.428;2023-07-24T03:41:34;3.92;;;1.42;;
49688;SDS011;70518;51.400;7.428;2023-07-24T03:44:00;3.25;;;1.25;;
49688;SDS011;70518;51.400;7.428;2023-07-24T03:46:25;2.60;;;1.30;;
49688;SDS011;70518;51.400;7.428;2023-07-24T03:48:50;3.10;;;1.02;;
49688;SDS011;70518;51.400;7.428;2023-07-24T03:51:16;2.35;;;1.15;;
49688;SDS011;70518;51.400;7.428;2023-07-24T03:53:41;3.00;;;1.15;;
49688;SDS011;70518;51.400;7.428;2023-07-24T03:56:06;2.13;;;0.98;;
49688;SDS011;70518;51.400;7.428;2023-07-24T03:58:32;3.25;;;1.45;;
49688;SDS011;70518;51.400;7.428;2023-07-24T04:00:57;2.78;;;1.00;;
49688;SDS011;70518;51.400;7.428;2023-07-24T04:03:22;3.50;;;1.15;;
49688;SDS011;70518;51.400;7.428;2023-07-24T04:05:48;2.38;;;1.05;;
49688;SDS011;70518;51.400;7.428;2023-07-24T04:08:13;2.53;;;1.38;;
49688;SDS011;70518;51.400;7.428;2023-07-24T04:10:38;3.55;;;1.10;;
49688;SDS011;70518;51.400;7.428;2023-07-24T04:13:03;2.92;;;1.08;;
49688;SDS011;70518;51.400;7.428;2023-07-24T04:15:29;2.47;;;1.35;;
49688;SDS011;70518;51.400;7.428;2023-07-24T04:17:54;2.45;;;1.20;;
49688;SDS011;70518;51.400;7.428;2023-07-24T04:20:19;2.60;;;1.30;;
49688;SDS011;70518;51.400;7.428;2023-07-24T04:22:44;5.10;;;1.33;;
49688;SDS011;70518;51.400;7.428;2023-07-24T04:25:10;2.78;;;1.30;;
49688;SDS011;70518;51.400;7.428;2023-07-24T04:27:36;1.77;;;1.30;;
49688;SDS011;70518;51.400;7.428;2023-07-24T04:30:01;2.22;;;1.10;;
49688;SDS011;70518;51.400;7.428;2023-07-24T04:32:27;2.15;;;1.17;;
49688;SDS011;70518;51.400;7.428;2023-07-24T04:34:52;2.03;;;0.90;;
49688;SDS011;70518;51.400;7.428;2023-07-24T04:37:18;1.95;;;1.30;;
49688;SDS011;70518;51.400;7.428;2023-07-24T04:39:43;2.58;;;1.38;;
49688;SDS011;70518;51.400;7.428;2023-07-24T04:42:08;2.72;;;1.20;;
49688;SDS011;70518;51.400;7.428;2023-07-24T04:44:34;2.38;;;1.30;;
49688;SDS011;70518;51.400;7.428;2023-07-24T04:46:59;1.70;;;1.10;;
49688;SDS011;70518;51.400;7.428;2023-07-24T04:49:24;3.03;;;1.00;;
49688;SDS011;70518;51.400;7.428;2023-07-24T04:51:50;2.40;;;1.38;;
49688;SDS011;70518;51.400;7.428;2023-07-24T04:54:16;3.20;;;1.10;;
49688;SDS011;70518;51.400;7.428;2023-07-24T04:56:42;3.40;;;1.63;;
49688;SDS011;70518;51.400;7.428;2023-07-24T04:59:07;5.80;;;1.50;;
49688;SDS011;70518;51.400;7.428;2023-07-24T05:01:32;2.63;;;1.35;;
49688;SDS011;70518;51.400;7.428;2023-07-24T05:03:57;2.45;;;1.08;;
49688;SDS011;70518;51.400;7.428;2023-07-24T05:06:23;2.42;;;1.20;;
49688;SDS011;70518;51.400;7.428;2023-07-24T05:08:48;2.35;;;1.00;;
49688;SDS011;70518;51.400;7.428;2023-07-24T05:11:13;3.17;;;1.15;;
49688;SDS011;70518;51.400;7.428;2023-07-24T05:13:39;1.95;;;1.27;;
49688;SDS011;70518;51.400;7.428;2023-07-24T05:16:04;2.60;;;1.10;;
49688;SDS011;70518;51.400;7.428;2023-07-24T05:18:29;3.50;;;1.30;;
49688;SDS011;70518;51.400;7.428;2023-07-24T05:20:55;2.47;;;1.30;;
49688;SDS011;70518;51.400;7.428;2023-07-24T05:23:20;2.78;;;1.20;;
49688;SDS011;70518;51.400;7.428;2023-07-24T05:25:45;2.30;;;1.25;;
49688;SDS011;70518;51.400;7.428;2023-07-24T05:28:11;2.08;;;1.30;;
49688;SDS011;70518;51.400;7.428;2023-07-24T05:30:36;3.80;;;1.50;;
49688;SDS011;70518;51.400;7.428;2023-07-24T05:33:01;3.25;;;1.40;;
49688;SDS011;70518;51.400;7.428;2023-07-24T05:35:26;3.25;;;1.25;;
49688;SDS011;70518;51.400;7.428;2023-07-24T05:37:52;2.55;;;1.48;;
49688;SDS011;70518;51.400;7.428;2023-07-24T05:40:17;2.90;;;1.48;;
49688;SDS011;70518;51.400;7.428;2023-07-24T05:42:42;2.88;;;1.33;;
49688;SDS011;70518;51.400;7.428;2023-07-24T05:45:08;2.97;;;1.45;;
49688;SDS011;70518;51.400;7.428;2023-07-24T05:47:34;3.03;;;1.70;;
49688;SDS011;70518;51.400;7.428;2023-07-24T05:49:59;2.33;;;1.35;;
49688;SDS011;70518;51.400;7.428;2023-07-24T05:52:25;2.05;;;1.05;;
49688;SDS011;70518;51.400;7.428;2023-07-24T05:54:50;3.25;;;1.48;;
49688;SDS011;70518;51.400;7.428;2023-07-24T05:57:15;2.70;;;1.60;;
49688;SDS011;70518;51.400;7.428;2023-07-24T05:59:40;2.35;;;1.60;;
49688;SDS011;70518;51.400;7.428;2023-07-24T06:02:06;2.38;;;1.20;;
49688;SDS011;70518;51.400;7.428;2023-07-24T06:04:32;2.95;;;1.70;;
49688;SDS011;70518;51.400;7.428;2023-07-24T06:06:57;2.47;;;1.55;;
49688;SDS011;70518;51.400;7.428;2023-07-24T06:09:23;3.33;;;1.88;;
49688;SDS011;70518;51.400;7.428;2023-07-24T06:11:48;4.43;;;1.38;;
49688;SDS011;70518;51.400;7.428;2023-07-24T06:14:13;2.13;;;1.33;;
49688;SDS011;70518;51.400;7.428;2023-07-24T06:16:38;1.98;;;1.48;;
49688;SDS011;70518;51.400;7.428;2023-07-24T06:19:04;1.88;;;1.30;;
49688;SDS011;70518;51.400;7.428;2023-07-24T06:21:29;3.17;;;1.83;;
49688;SDS011;70518;51.400;7.428;2023-07-24T06:23:55;2.17;;;1.40;;
49688;SDS011;70518;51.400;7.428;2023-07-24T06:26:21;3.85;;;2.03;;
49688;SDS011;70518;51.400;7.428;2023-07-24T06:28:46;3.35;;;1.35;;
49688;SDS011;70518;51.400;7.428;2023-07-24T06:31:12;3.63;;;1.20;;
49688;SDS011;70518;51.400;7.428;2023-07-24T06:33:37;3.30;;;1.77;;
49688;SDS011;70518;51.400;7.428;2023-07-24T06:36:02;3.25;;;1.58;;
49688;SDS011;70518;51.400;7.428;2023-07-24T06:38:28;2.80;;;1.63;;
49688;SDS011;70518;51.400;7.428;2023-07-24T06:40:53;3.30;;;2.15;;
49688;SDS011;70518;51.400;7.428;2023-07-24T06:43:18;3.35;;;1.70;;
49688;SDS011;70518;51.400;7.428;2023-07-24T06:45:44;2.95;;;1.77;;
49688;SDS011;70518;51.400;7.428;2023-07-24T06:48:09;3.95;;;1.73;;
49688;SDS011;70518;51.400;7.428;2023-07-24T06:50:34;3.55;;;1.80;;
49688;SDS011;70518;51.400;7.428;2023-07-24T06:53:00;4.07;;;2.50;;
49688;SDS011;70518;51.400;7.428;2023-07-24T06:55:25;2.40;;;1.58;;
49688;SDS011;70518;51.400;7.428;2023-07-24T06:57:50;3.92;;;2.63;;
49688;SDS011;70518;51.400;7.428;2023-07-24T07:00:15;3.03;;;1.90;;
49688;SDS011;70518;51.400;7.428;2023-07-24T07:02:41;4.68;;;1.73;;
49688;SDS011;70518;51.400;7.428;2023-07-24T07:05:06;3.78;;;1.70;;
49688;SDS011;70518;51.400;7.428;2023-07-24T07:07:32;2.72;;;2.00;;
49688;SDS011;70518;51.400;7.428;2023-07-24T07:09:57;4.18;;;2.00;;
49688;SDS011;70518;51.400;7.428;2023-07-24T07:12:22;4.13;;;2.35;;
49688;SDS011;70518;51.400;7.428;2023-07-24T07:14:48;2.70;;;2.13;;
49688;SDS011;70518;51.400;7.428;2023-07-24T07:17:13;3.92;;;2.22;;
49688;SDS011;70518;51.400;7.428;2023-07-24T07:19:38;2.90;;;1.95;;
49688;SDS011;70518;51.400;7.428;2023-07-24T07:22:04;4.28;;;2.40;;
49688;SDS011;70518;51.400;7.428;2023-07-24T07:24:29;4.30;;;1.95;;
49688;SDS011;70518;51.400;7.428;2023-07-24T07:26:55;3.90;;;2.10;;
49688;SDS011;70518;51.400;7.428;2023-07-24T07:29:20;3.38;;;1.98;;
49688;SDS011;70518;51.400;7.428;2023-07-24T07:31:45;2.90;;;2.10;;
49688;SDS011;70518;51.400;7.428;2023-07-24T07:34:11;2.53;;;2.15;;
49688;SDS011;70518;51.400;7.428;2023-07-24T07:36:36;5.07;;;2.28;;
49688;SDS011;70518;51.400;7.428;2023-07-24T07:39:01;2.63;;;2.10;;
49688;SDS011;70518;51.400;7.428;2023-07-24T07:41:27;4.10;;;2.15;;
49688;SDS011;70518;51.400;7.428;2023-07-24T07:43:53;4.10;;;2.20;;
49688;SDS011;70518;51.400;7.428;2023-07-24T07:46:19;3.25;;;2.17;;
49688;SDS011;70518;51.400;7.428;2023-07-24T07:48:44;2.92;;;2.15;;
49688;SDS011;70518;51.400;7.428;2023-07-24T07:51:11;2.78;;;2.28;;
49688;SDS011;70518;51.400;7.428;2023-07-24T07:53:36;3.80;;;2.47;;
49688;SDS011;70518;51.400;7.428;2023-07-24T07:56:03;3.53;;;2.13;;
49688;SDS011;70518;51.400;7.428;2023-07-24T07:58:28;3.25;;;2.05;;
49688;SDS011;70518;51.400;7.428;2023-07-24T08:00:54;3.35;;;2.13;;
49688;SDS011;70518;51.400;7.428;2023-07-24T08:03:19;4.38;;;1.90;;
49688;SDS011;70518;51.400;7.428;2023-07-24T08:05:44;2.50;;;1.98;;
49688;SDS011;70518;51.400;7.428;2023-07-24T08:08:10;3.45;;;1.98;;
49688;SDS011;70518;51.400;7.428;2023-07-24T08:10:37;5.38;;;2.15;;
49688;SDS011;70518;51.400;7.428;2023-07-24T08:13:03;3.20;;;1.73;;
49688;SDS011;70518;51.400;7.428;2023-07-24T08:15:28;3.58;;;1.60;;
49688;SDS011;70518;51.400;7.428;2023-07-24T08:17:53;3.00;;;1.63;;
49688;SDS011;70518;51.400;7.428;2023-07-24T08:20:18;3.38;;;1.58;;
49688;SDS011;70518;51.400;7.428;2023-07-24T08:22:44;3.90;;;1.48;;
49688;SDS011;70518;51.400;7.428;2023-07-24T08:25:09;2.90;;;1.58;;
49688;SDS011;70518;51.400;7.428;2023-07-24T08:27:34;2.58;;;1.42;;
49688;SDS011;70518;51.400;7.428;2023-07-24T08:30:00;3.10;;;1.38;;
49688;SDS011;70518;51.400;7.428;2023-07-24T08:32:25;1.90;;;1.65;;
49688;SDS011;70518;51.400;7.428;2023-07-24T08:34:50;3.53;;;1.10;;
49688;SDS011;70518;51.400;7.428;2023-07-24T08:37:16;2.60;;;1.23;;
49688;SDS011;70518;51.400;7.428;2023-07-24T08:39:41;3.20;;;1.25;;
49688;SDS011;70518;51.400;7.428;2023-07-24T08:42:12;3.25;;;1.35;;
49688;SDS011;70518;51.400;7.428;2023-07-24T08:44:38;3.45;;;1.08;;
49688;SDS011;70518;51.400;7.428;2023-07-24T08:47:04;1.63;;;1.15;;
49688;SDS011;70518;51.400;7.428;2023-07-24T08:49:31;2.00;;;1.25;;
49688;SDS011;70518;51.400;7.428;2023-07-24T08:51:57;2.90;;;1.35;;
49688;SDS011;70518;51.400;7.428;2023-07-24T08:54:24;3.35;;;1.25;;
49688;SDS011;70518;51.400;7.428;2023-07-24T08:56:52;2.60;;;1.20;;
49688;SDS011;70518;51.400;7.428;2023-07-24T08:59:18;2.92;;;1.17;;
49688;SDS011;70518;51.400;7.428;2023-07-24T09:01:44;5.30;;;1.13;;
49688;SDS011;70518;51.400;7.428;2023-07-24T09:04:09;3.72;;;1.58;;
49688;SDS011;70518;51.400;7.428;2023-07-24T09:06:34;2.42;;;1.15;;
49688;SDS011;70518;51.400;7.428;2023-07-24T09:09:00;1.85;;;1.10;;
49688;SDS011;70518;51.400;7.428;2023-07-24T09:11:26;2.05;;;1.00;;
49688;SDS011;70518;51.400;7.428;2023-07-24T09:13:51;2.55;;;1.23;;
49688;SDS011;70518;51.400;7.428;2023-07-24T09:16:23;2.83;;;1.30;;
49688;SDS011;70518;51.400;7.428;2023-07-24T09:18:49;1.77;;;1.10;;
49688;SDS011;70518;51.400;7.428;2023-07-24T09:21:26;2.22;;;1.25;;
49688;SDS011;70518;51.400;7.428;2023-07-24T09:23:53;2.33;;;1.13;;
49688;SDS011;70518;51.400;7.428;2023-07-24T09:26:18;2.20;;;1.13;;
49688;SDS011;70518;51.400;7.428;2023-07-24T09:28:50;1.92;;;1.05;;
49688;SDS011;70518;51.400;7.428;2023-07-24T09:31:16;1.85;;;1.00;;
49688;SDS011;70518;51.400;7.428;2023-07-24T09:33:42;1.67;;;1.17;;
49688;SDS011;70518;51.400;7.428;2023-07-24T09:36:08;2.80;;;0.98;;
49688;SDS011;70518;51.400;7.428;2023-07-24T09:38:37;3.58;;;1.20;;
49688;SDS011;70518;51.400;7.428;2023-07-24T09:41:04;2.25;;;1.05;;
49688;SDS011;70518;51.400;7.428;2023-07-24T09:43:30;2.58;;;1.17;;
49688;SDS011;70518;51.400;7.428;2023-07-24T09:45:56;2.05;;;1.05;;
49688;SDS011;70518;51.400;7.428;2023-07-24T09:48:26;2.25;;;1.30;;
49688;SDS011;70518;51.400;7.428;2023-07-24T09:50:56;1.97;;;1.10;;
49688;SDS011;70518;51.400;7.428;2023-07-24T09:53:32;2.30;;;1.08;;
49688;SDS011;70518;51.400;7.428;2023-07-24T09:56:03;1.80;;;1.10;;
49688;SDS011;70518;51.400;7.428;2023-07-24T09:58:33;5.20;;;1.83;;
49688;SDS011;70518;51.400;7.428;2023-07-24T10:00:59;2.67;;;1.20;;
49688;SDS011;70518;51.400;7.428;2023-07-24T10:03:26;3.50;;;1.45;;
49688;SDS011;70518;51.400;7.428;2023-07-24T10:05:52;1.98;;;1.23;;
49688;SDS011;70518;51.400;7.428;2023-07-24T10:08:18;2.38;;;1.42;;
49688;SDS011;70518;51.400;7.428;2023-07-24T10:10:44;2.22;;;1.30;;
49688;SDS011;70518;51.400;7.428;2023-07-24T10:13:10;2.95;;;2.10;;
49688;SDS011;70518;51.400;7.428;2023-07-24T10:15:39;3.22;;;1.70;;
49688;SDS011;70518;51.400;7.428;2023-07-24T10:18:06;2.42;;;1.73;;
49688;SDS011;70518;51.400;7.428;2023-07-24T10:20:33;3.35;;;2.25;;
49688;SDS011;70518;51.400;7.428;2023-07-24T10:23:03;2.95;;;1.70;;
49688;SDS011;70518;51.400;7.428;2023-07-24T10:25:29;4.05;;;2.25;;
49688;SDS011;70518;51.400;7.428;2023-07-24T10:28:05;3.05;;;2.50;;
49688;SDS011;70518;51.400;7.428;2023-07-24T10:30:39;5.47;;;2.30;;
49688;SDS011;70518;51.400;7.428;2023-07-24T10:33:07;2.58;;;1.95;;
49688;SDS011;70518;51.400;7.428;2023-07-24T10:38:12;4.07;;;2.08;;
49688;SDS011;70518;51.400;7.428;2023-07-24T10:40:42;3.20;;;2.05;;
49688;SDS011;70518;51.400;7.428;2023-07-24T10:43:13;3.50;;;2.78;;
49688;SDS011;70518;51.400;7.428;2023-07-24T10:45:51;2.50;;;1.85;;
49688;SDS011;70518;51.400;7.428;2023-07-24T10:48:19;2.90;;;2.15;;
49688;SDS011;70518;51.400;7.428;2023-07-24T10:50:46;3.50;;;1.88;;
49688;SDS011;70518;51.400;7.428;2023-07-24T10:53:15;3.65;;;1.88;;
49688;SDS011;70518;51.400;7.428;2023-07-24T10:55:42;4.03;;;1.85;;
49688;SDS011;70518;51.400;7.428;2023-07-24T10:58:09;2.83;;;1.70;;
49688;SDS011;70518;51.400;7.428;2023-07-24T11:00:34;2.10;;;1.60;;
49688;SDS011;70518;51.400;7.428;2023-07-24T11:03:00;2.40;;;1.65;;
49688;SDS011;70518;51.400;7.428;2023-07-24T11:05:26;3.22;;;1.88;;
49688;SDS011;70518;51.400;7.428;2023-07-24T11:07:51;2.20;;;1.73;;
49688;SDS011;70518;51.400;7.428;2023-07-24T11:10:18;2.30;;;1.67;;
49688;SDS011;70518;51.400;7.428;2023-07-24T11:12:45;2.60;;;2.00;;
49688;SDS011;70518;51.400;7.428;2023-07-24T11:15:11;2.75;;;1.50;;
49688;SDS011;70518;51.400;7.428;2023-07-24T11:17:37;2.38;;;1.73;;
49688;SDS011;70518;51.400;7.428;2023-07-24T11:20:06;2.38;;;1.83;;
49688;SDS011;70518;51.400;7.428;2023-07-24T11:22:31;8.10;;;2.58;;
49688;SDS011;70518;51.400;7.428;2023-07-24T11:24:58;4.95;;;1.60;;
49688;SDS011;70518;51.400;7.428;2023-07-24T11:27:24;2.30;;;1.50;;
49688;SDS011;70518;51.400;7.428;2023-07-24T11:29:50;2.58;;;1.42;;
49688;SDS011;70518;51.400;7.428;2023-07-24T11:32:19;2.10;;;1.80;;
49688;SDS011;70518;51.400;7.428;2023-07-24T11:34:46;1.70;;;1.40;;
49688;SDS011;70518;51.400;7.428;2023-07-24T11:37:13;2.45;;;1.40;;
49688;SDS011;70518;51.400;7.428;2023-07-24T11:39:38;3.13;;;1.38;;
49688;SDS011;70518;51.400;7.428;2023-07-24T11:42:04;3.42;;;1.50;;
49688;SDS011;70518;51.400;7.428;2023-07-24T11:44:30;1.98;;;1.10;;
49688;SDS011;70518;51.400;7.428;2023-07-24T11:47:05;5.60;;;1.60;;
49688;SDS011;70518;51.400;7.428;2023-07-24T11:49:31;1.75;;;0.93;;
49688;SDS011;70518;51.400;7.428;2023-07-24T11:52:03;2.63;;;1.02;;
49688;SDS011;70518;51.400;7.428;2023-07-24T11:54:30;3.10;;;1.23;;
49688;SDS011;70518;51.400;7.428;2023-07-24T11:56:55;1.60;;;1.00;;
49688;SDS011;70518;51.400;7.428;2023-07-24T11:59:21;2.00;;;1.00;;
49688;SDS011;70518;51.400;7.428;2023-07-24T12:01:46;1.95;;;1.10;;
49688;SDS011;70518;51.400;7.428;2023-07-24T12:04:13;1.80;;;0.80;;
49688;SDS011;70518;51.400;7.428;2023-07-24T12:06:39;3.53;;;1.17;;
49688;SDS011;70518;51.400;7.428;2023-07-24T12:09:05;1.70;;;1.05;;
49688;SDS011;70518;51.400;7.428;2023-07-24T12:11:31;2.80;;;1.10;;
49688;SDS011;70518;51.400;7.428;2023-07-24T12:13:56;3.25;;;1.00;;
49688;SDS011;70518;51.400;7.428;2023-07-24T12:16:22;2.40;;;1.10;;
49688;SDS011;70518;51.400;7.428;2023-07-24T12:18:47;4.63;;;0.73;;
49688;SDS011;70518;51.400;7.428;2023-07-24T12:21:12;3.10;;;0.40;;
49688;SDS011;70518;51.400;7.428;2023-07-24T12:23:38;4.43;;;0.40;;
49688;SDS011;70518;51.400;7.428;2023-07-24T12:26:03;1.60;;;0.20;;
49688;SDS011;70518;51.400;7.428;2023-07-24T12:28:29;4.10;;;0.30;;
49688;SDS011;70518;51.400;7.428;2023-07-24T12:30:54;1.80;;;0.20;;
49688;SDS011;70518;51.400;7.428;2023-07-24T12:33:20;1.60;;;0.17;;
49688;SDS011;70518;51.400;7.428;2023-07-24T12:35:48;0.70;;;0.13;;
49688;SDS011;70518;51.400;7.428;2023-07-24T12:38:16;1.92;;;0.22;;
49688;SDS011;70518;51.400;7.428;2023-07-24T12:40:42;0.57;;;0.20;;
49688;SDS011;70518;51.400;7.428;2023-07-24T12:43:07;1.27;;;0.10;;
49688;SDS011;70518;51.400;7.428;2023-07-24T12:45:33;0.80;;;0.20;;
49688;SDS011;70518;51.400;7.428;2023-07-24T12:47:58;0.43;;;0.20;;
49688;SDS011;70518;51.400;7.428;2023-07-24T12:50:23;1.05;;;0.20;;
49688;SDS011;70518;51.400;7.428;2023-07-24T12:52:49;0.50;;;0.20;;
49688;SDS011;70518;51.400;7.428;2023-07-24T12:55:15;1.25;;;0.20;;
49688;SDS011;70518;51.400;7.428;2023-07-24T12:57:40;1.20;;;0.30;;
49688;SDS011;70518;51.400;7.428;2023-07-24T13:00:05;0.93;;;0.30;;
49688;SDS011;70518;51.400;7.428;2023-07-24T13:02:31;1.42;;;0.30;;
49688;SDS011;70518;51.400;7.428;2023-07-24T13:04:57;0.73;;;0.30;;
49688;SDS011;70518;51.400;7.428;2023-07-24T13:07:22;0.90;;;0.30;;
49688;SDS011;70518;51.400;7.428;2023-07-24T13:09:48;1.10;;;0.40;;
49688;SDS011;70518;51.400;7.428;2023-07-24T13:12:13;1.88;;;0.40;;
49688;SDS011;70518;51.400;7.428;2023-07-24T13:14:38;1.48;;;0.40;;
49688;SDS011;70518;51.400;7.428;2023-07-24T13:17:04;0.95;;;0.20;;
49688;SDS011;70518;51.400;7.428;2023-07-24T13:19:29;1.15;;;0.30;;
49688;SDS011;70518;51.400;7.428;2023-07-24T13:21:55;0.88;;;0.40;;
49688;SDS011;70518;51.400;7.428;2023-07-24T13:24:20;1.83;;;0.70;;
49688;SDS011;70518;51.400;7.428;2023-07-24T13:26:45;2.88;;;0.40;;
49688;SDS011;70518;51.400;7.428;2023-07-24T13:29:10;1.20;;;0.50;;
49688;SDS011;70518;51.400;7.428;2023-07-24T13:31:36;2.15;;;0.50;;
49688;SDS011;70518;51.400;7.428;2023-07-24T13:34:01;2.05;;;0.50;;
49688;SDS011;70518;51.400;7.428;2023-07-24T13:36:27;0.93;;;0.43;;
49688;SDS011;70518;51.400;7.428;2023-07-24T13:38:53;1.60;;;0.80;;
49688;SDS011;70518;51.400;7.428;2023-07-24T13:41:18;1.77;;;0.55;;
49688;SDS011;70518;51.400;7.428;2023-07-24T13:43:43;2.22;;;0.63;;
49688;SDS011;70518;51.400;7.428;2023-07-24T13:46:09;2.60;;;0.50;;
49688;SDS011;70518;51.400;7.428;2023-07-24T13:48:35;0.75;;;0.40;;
49688;SDS011;70518;51.400;7.428;2023-07-24T13:51:00;3.08;;;0.50;;
49688;SDS011;70518;51.400;7.428;2023-07-24T13:53:26;0.82;;;0.40;;
49688;SDS011;70518;51.400;7.428;2023-07-24T13:55:51;1.17;;;0.60;;
49688;SDS011;70518;51.400;7.428;2023-07-24T13:58:17;2.78;;;0.43;;
49688;SDS011;70518;51.400;7.428;2023-07-24T14:00:42;1.10;;;0.50;;
49688;SDS011;70518;51.400;7.428;2023-07-24T14:03:07;1.60;;;0.50;;
49688;SDS011;70518;51.400;7.428;2023-07-24T14:05:33;1.00;;;0.40;;
49688;SDS011;70518;51.400;7.428;2023-07-24T14:08:01;0.80;;;0.40;;
49688;SDS011;70518;51.400;7.428;2023-07-24T14:10:27;3.67;;;0.40;;
49688;SDS011;70518;51.400;7.428;2023-07-24T14:12:52;1.58;;;0.60;;
49688;SDS011;70518;51.400;7.428;2023-07-24T14:15:17;1.17;;;0.43;;
49688;SDS011;70518;51.400;7.428;2023-07-24T14:17:42;2.47;;;0.60;;
49688;SDS011;70518;51.400;7.428;2023-07-24T14:20:08;0.85;;;0.50;;
49688;SDS011;70518;51.400;7.428;2023-07-24T14:22:33;1.20;;;0.52;;
49688;SDS011;70518;51.400;7.428;2023-07-24T14:24:59;1.55;;;0.50;;
49688;SDS011;70518;51.400;7.428;2023-07-24T14:27:24;1.73;;;0.60;;
49688;SDS011;70518;51.400;7.428;2023-07-24T14:29:49;1.55;;;0.55;;
49688;SDS011;70518;51.400;7.428;2023-07-24T14:32:14;1.38;;;0.57;;
49688;SDS011;70518;51.400;7.428;2023-07-24T14:34:40;1.58;;;0.57;;
49688;SDS011;70518;51.400;7.428;2023-07-24T14:37:06;1.48;;;0.50;;
49688;SDS011;70518;51.400;7.428;2023-07-24T14:39:31;2.00;;;0.60;;
49688;SDS011;70518;51.400;7.428;2023-07-24T14:41:57;1.20;;;0.70;;